createdAt,value
2018-11-21T00:00:12.353Z,102058.44
2018-11-21T00:02:40.685Z,102070.47
2018-11-21T00:05:09.053Z,102071.35
2018-11-21T00:07:37.900Z,102064.34
2018-11-21T00:10:09.072Z,102066.18
2018-11-21T00:12:38.041Z,102064.58
2018-11-21T00:15:08.497Z,102063.09
2018-11-21T00:17:36.870Z,102063.95
2018-11-21T00:20:06.420Z,102070.89
2018-11-21T00:22:35.072Z,102077.08
2018-11-21T00:25:03.446Z,102078.42
2018-11-21T00:27:31.800Z,102077.30
2018-11-21T00:30:00.184Z,102076.20
2018-11-21T00:32:28.763Z,102074.59
2018-11-21T00:34:57.191Z,102083.72
2018-11-21T00:37:26.161Z,102077.66
2018-11-21T00:39:54.828Z,102083.72
2018-11-21T00:42:23.200Z,102082.37
2018-11-21T00:44:51.546Z,102084.22
2018-11-21T00:47:19.912Z,102081.20
2018-11-21T00:49:48.238Z,102086.88
2018-11-21T00:52:16.605Z,102089.09
2018-11-21T00:54:44.948Z,102089.02
2018-11-21T00:57:13.302Z,102083.56
2018-11-21T00:59:41.947Z,102092.55
2018-11-21T01:02:10.313Z,102087.48
2018-11-21T01:04:38.656Z,102091.37
2018-11-21T01:07:07.033Z,102084.36
2018-11-21T01:09:35.395Z,102090.92
2018-11-21T01:12:03.728Z,102090.30
2018-11-21T01:14:32.088Z,102086.84
2018-11-21T01:17:00.425Z,102086.22
2018-11-21T01:19:28.792Z,102093.88
2018-11-21T01:21:57.133Z,102095.55
2018-11-21T01:24:25.496Z,102090.97
2018-11-21T01:26:53.834Z,102096.83
2018-11-21T01:29:22.213Z,102100.66
2018-11-21T01:31:50.548Z,102104.49
2018-11-21T01:34:18.907Z,102092.61
2018-11-21T01:36:47.267Z,102100.40
2018-11-21T01:39:15.624Z,102103.44
2018-11-21T01:41:43.970Z,102097.71
2018-11-21T01:44:12.376Z,102098.63
2018-11-21T01:46:40.712Z,102097.45
2018-11-21T01:49:09.048Z,102100.53
2018-11-21T01:51:37.408Z,102097.58
2018-11-21T01:54:06.025Z,102092.07
2018-11-21T01:56:34.382Z,102098.46
2018-11-21T01:59:02.751Z,102094.23
2018-11-21T02:01:31.138Z,102088.24
2018-11-21T02:03:59.485Z,102092.95
2018-11-21T02:06:27.880Z,102097.31
2018-11-21T02:08:56.232Z,102097.31
2018-11-21T02:11:24.599Z,102107.01
2018-11-21T02:13:52.954Z,102113.39
2018-11-21T02:16:21.327Z,102096.56
2018-11-21T02:18:49.672Z,102104.84
2018-11-21T02:21:18.024Z,102104.72
2018-11-21T02:23:46.431Z,102101.28
2018-11-21T02:26:14.800Z,102104.23
2018-11-21T02:28:43.356Z,102105.11
2018-11-21T02:31:11.817Z,102097.45
2018-11-21T02:33:40.184Z,102094.02
2018-11-21T02:36:08.534Z,102096.95
2018-11-21T02:38:36.914Z,102094.80
2018-11-21T02:41:05.271Z,102098.11
2018-11-21T02:43:33.657Z,102099.29
2018-11-21T02:46:02.086Z,102103.12
2018-11-21T02:48:30.461Z,102102.20
2018-11-21T02:50:58.820Z,102100.56
2018-11-21T02:53:27.182Z,102107.05
2018-11-21T02:55:55.559Z,102112.16
2018-11-21T02:58:24.298Z,102106.66
2018-11-21T03:00:52.669Z,102104.63
2018-11-21T03:03:21.020Z,102101.55
2018-11-21T03:05:49.403Z,102099.91
2018-11-21T03:08:17.754Z,102105.90
2018-11-21T03:10:46.136Z,102107.17
2018-11-21T03:13:14.470Z,102108.95
2018-11-21T03:15:42.840Z,102112.78
2018-11-21T03:18:11.215Z,102110.62
2018-11-21T03:20:39.639Z,102111.89
2018-11-21T03:23:07.981Z,102114.31
2018-11-21T03:25:36.334Z,102109.61
2018-11-21T03:28:04.819Z,102110.39
2018-11-21T03:30:33.170Z,102113.70
2018-11-21T03:33:01.547Z,102120.22
2018-11-21T03:35:29.932Z,102117.53
2018-11-21T03:37:58.297Z,102121.00
2018-11-21T03:40:26.641Z,102106.95
2018-11-21T03:42:55.028Z,102111.14
2018-11-21T03:45:23.369Z,102118.32
2018-11-21T03:47:51.760Z,102111.94
2018-11-21T03:50:20.106Z,102114.88
2018-11-21T03:52:48.481Z,102117.05
2018-11-21T03:55:16.816Z,102122.94
2018-11-21T03:57:45.198Z,102122.55
2018-11-21T04:00:14.203Z,102115.28
2018-11-21T04:02:42.818Z,102121.66
2018-11-21T04:05:11.373Z,102120.88
2018-11-21T04:07:39.741Z,102125.10
2018-11-21T04:10:10.776Z,102119.59
2018-11-21T04:12:39.259Z,102126.77
2018-11-21T04:15:08.817Z,102123.30
2018-11-21T04:17:37.205Z,102123.03
2018-11-21T04:20:06.526Z,102123.43
2018-11-21T04:22:34.919Z,102128.14
2018-11-21T04:25:03.271Z,102131.09
2018-11-21T04:27:31.644Z,102124.22
2018-11-21T04:30:00.094Z,102114.75
2018-11-21T04:32:28.401Z,102120.65
2018-11-21T04:34:56.751Z,102119.77
2018-11-21T04:37:25.140Z,102120.65
2018-11-21T04:39:53.491Z,102125.76
2018-11-21T04:42:21.888Z,102122.32
2018-11-21T04:44:50.245Z,102120.12
2018-11-21T04:47:18.623Z,102114.53
2018-11-21T04:49:46.967Z,102119.64
2018-11-21T04:52:15.303Z,102122.58
2018-11-21T04:54:43.676Z,102120.78
2018-11-21T04:57:12.016Z,102118.23
2018-11-21T04:59:40.372Z,102120.78
2018-11-21T05:02:08.705Z,102121.70
2018-11-21T05:04:37.075Z,102120.03
2018-11-21T05:07:05.444Z,102113.91
2018-11-21T05:09:33.816Z,102122.06
2018-11-21T05:12:02.332Z,102120.30
2018-11-21T05:14:30.696Z,102119.91
2018-11-21T05:16:59.030Z,102118.53
2018-11-21T05:19:27.397Z,102117.61
2018-11-21T05:21:55.733Z,102128.74
2018-11-21T05:24:24.136Z,102123.99
2018-11-21T05:26:52.483Z,102136.02
2018-11-21T05:29:20.898Z,102141.52
2018-11-21T05:31:49.352Z,102135.48
2018-11-21T05:34:17.728Z,102133.59
2018-11-21T05:36:46.080Z,102137.06
2018-11-21T05:39:14.451Z,102135.78
2018-11-21T05:41:42.821Z,102138.34
2018-11-21T05:44:11.385Z,102136.05
2018-11-21T05:46:39.762Z,102148.42
2018-11-21T05:49:08.234Z,102155.69
2018-11-21T05:51:36.608Z,102157.62
2018-11-21T05:54:05.136Z,102164.01
2018-11-21T05:56:33.506Z,102168.98
2018-11-21T05:59:01.854Z,102171.44
2018-11-21T06:01:30.229Z,102175.66
2018-11-21T06:03:58.574Z,102180.64
2018-11-21T06:06:26.942Z,102181.92
2018-11-21T06:08:55.295Z,102183.06
2018-11-21T06:11:23.670Z,102182.57
2018-11-21T06:13:52.019Z,102184.63
2018-11-21T06:16:20.366Z,102190.63
2018-11-21T06:18:48.930Z,102199.03
2018-11-21T06:21:17.275Z,102192.95
2018-11-21T06:23:45.854Z,102192.55
2018-11-21T06:26:14.194Z,102205.71
2018-11-21T06:28:42.568Z,102213.23
2018-11-21T06:31:10.920Z,102219.13
2018-11-21T06:33:39.397Z,102216.58
2018-11-21T06:36:07.748Z,102223.32
2018-11-21T06:38:36.125Z,102228.33
2018-11-21T06:41:04.553Z,102231.00
2018-11-21T06:43:32.927Z,102238.54
2018-11-21T06:46:01.371Z,102244.92
2018-11-21T06:48:29.745Z,102243.91
2018-11-21T06:50:58.128Z,102249.01
2018-11-21T06:53:26.545Z,102255.00
2018-11-21T06:55:54.885Z,102254.61
2018-11-21T06:58:23.258Z,102261.38
2018-11-21T07:00:51.611Z,102262.27
2018-11-21T07:03:19.959Z,102264.95
2018-11-21T07:05:48.328Z,102270.30
2018-11-21T07:08:16.677Z,102274.76
2018-11-21T07:10:45.058Z,102278.72
2018-11-21T07:13:13.402Z,102285.20
2018-11-21T07:15:41.767Z,102281.37
2018-11-21T07:18:10.123Z,102278.96
2018-11-21T07:20:38.495Z,102287.11
2018-11-21T07:23:06.848Z,102279.98
2018-11-21T07:25:35.219Z,102292.23
2018-11-21T07:28:03.573Z,102293.12
2018-11-21T07:30:31.942Z,102299.50
2018-11-21T07:33:00.293Z,102306.28
2018-11-21T07:35:28.658Z,102306.77
2018-11-21T07:37:57.000Z,102311.09
2018-11-21T07:40:25.398Z,102309.46
2018-11-21T07:42:53.768Z,102310.97
2018-11-21T07:45:22.155Z,102312.88
2018-11-21T07:47:50.508Z,102316.81
2018-11-21T07:50:20.395Z,102320.39
2018-11-21T07:52:48.763Z,102318.85
2018-11-21T07:55:17.129Z,102319.48
2018-11-21T07:57:47.375Z,102322.27
2018-11-21T08:01:19.511Z,102330.56
2018-11-21T08:03:52.314Z,102323.91
2018-11-21T08:06:29.113Z,102323.27
2018-11-21T08:09:32.006Z,102327.23
2018-11-21T08:12:18.464Z,102331.69
2018-11-21T08:15:08.720Z,102330.16
2018-11-21T08:17:54.763Z,102327.30
2018-11-21T08:20:40.972Z,102329.59
2018-11-21T08:23:34.789Z,102326.78
2018-11-21T08:26:21.215Z,102328.19
2018-11-21T08:28:49.581Z,102332.52
2018-11-21T08:31:17.922Z,102334.69
2018-11-21T08:33:46.289Z,102325.64
2018-11-21T08:36:14.628Z,102325.73
2018-11-21T08:38:43.396Z,102320.76
2018-11-21T08:41:11.773Z,102337.11
2018-11-21T08:43:40.153Z,102337.34
2018-11-21T08:46:10.062Z,102342.95
2018-11-21T08:48:38.409Z,102336.69
2018-11-21T08:51:06.826Z,102334.76
2018-11-21T08:53:35.280Z,102337.05
2018-11-21T08:56:03.677Z,102346.62
2018-11-21T08:58:32.048Z,102349.41
2018-11-21T09:01:00.420Z,102354.00
2018-11-21T09:03:28.766Z,102348.59
2018-11-21T09:05:57.141Z,102347.19
2018-11-21T09:08:25.854Z,102349.84
2018-11-21T09:10:54.222Z,102351.48
2018-11-21T09:13:22.576Z,102350.07
2018-11-21T09:15:53.543Z,102354.49
2018-11-21T09:18:21.802Z,102352.91
2018-11-21T09:20:50.168Z,102357.07
2018-11-21T09:23:18.511Z,102364.77
2018-11-21T09:25:46.876Z,102368.16
2018-11-21T09:28:15.224Z,102363.61
2018-11-21T09:30:43.594Z,102364.05
2018-11-21T09:33:11.951Z,102365.69
2018-11-21T09:35:40.319Z,102364.75
2018-11-21T09:38:08.661Z,102359.45
2018-11-21T09:40:37.029Z,102361.97
2018-11-21T09:43:05.769Z,102364.48
2018-11-21T09:45:34.137Z,102360.49
2018-11-21T09:48:02.482Z,102355.68
2018-11-21T09:50:32.135Z,102360.66
2018-11-21T09:53:00.468Z,102367.80
2018-11-21T09:55:28.854Z,102364.57
2018-11-21T09:57:57.205Z,102364.17
2018-11-21T10:01:02.050Z,102371.68
2018-11-21T10:03:32.098Z,102370.61
2018-11-21T10:06:09.474Z,102372.15
2018-11-21T10:08:59.883Z,102374.31
2018-11-21T10:11:28.748Z,102376.48
2018-11-21T10:13:57.100Z,102372.23
2018-11-21T10:16:25.511Z,102373.43
2018-11-21T10:18:55.453Z,102375.47
2018-11-21T10:21:25.308Z,102373.79
2018-11-21T10:23:53.676Z,102372.91
2018-11-21T10:26:22.216Z,102379.70
2018-11-21T10:28:51.550Z,102376.75
2018-11-21T10:31:19.905Z,102378.03
2018-11-21T10:33:48.410Z,102375.59
2018-11-21T10:36:16.765Z,102377.88
2018-11-21T10:38:45.142Z,102382.00
2018-11-21T10:41:13.485Z,102387.52
2018-11-21T10:43:41.859Z,102392.25
2018-11-21T10:46:10.204Z,102389.56
2018-11-21T10:48:38.576Z,102391.63
2018-11-21T10:51:06.921Z,102403.16
2018-11-21T10:53:35.296Z,102396.76
2018-11-21T10:56:03.638Z,102401.00
2018-11-21T10:58:32.010Z,102401.27
2018-11-21T11:01:18.314Z,102398.98
2018-11-21T11:03:55.183Z,102403.48
2018-11-21T11:06:36.027Z,102410.28
2018-11-21T11:09:31.883Z,102413.12
2018-11-21T11:12:17.925Z,102413.91
2018-11-21T11:15:17.332Z,102417.23
2018-11-21T11:18:07.338Z,102417.63
2018-11-21T11:20:53.636Z,102413.78
2018-11-21T11:23:40.017Z,102416.47
2018-11-21T11:26:26.286Z,102409.67
2018-11-21T11:29:12.132Z,102411.61
2018-11-21T11:31:51.284Z,102409.81
2018-11-21T11:34:37.558Z,102407.25
2018-11-21T11:37:23.804Z,102418.91
2018-11-21T11:40:10.220Z,102403.41
2018-11-21T11:43:03.938Z,102408.05
2018-11-21T11:45:52.428Z,102415.60
2018-11-21T11:48:36.844Z,102412.42
2018-11-21T11:51:27.213Z,102413.48
2018-11-21T11:54:14.696Z,102419.05
2018-11-21T11:57:01.138Z,102413.18
2018-11-21T11:59:48.628Z,102418.25
2018-11-21T12:02:30.598Z,102420.55
2018-11-21T12:05:21.198Z,102425.19
2018-11-21T12:08:05.656Z,102423.02
2018-11-21T12:10:52.018Z,102428.41
2018-11-21T12:13:45.466Z,102421.61
2018-11-21T12:16:51.282Z,102415.08
2018-11-21T12:19:34.329Z,102422.01
2018-11-21T12:22:08.209Z,102417.77
2018-11-21T12:24:54.577Z,102410.71
2018-11-21T12:27:43.473Z,102412.39
2018-11-21T12:30:29.683Z,102410.48
2018-11-21T12:33:15.985Z,102411.64
2018-11-21T12:36:09.795Z,102414.98
2018-11-21T12:38:56.165Z,102416.36
2018-11-21T12:41:53.533Z,102412.03
2018-11-21T12:44:43.199Z,102410.09
2018-11-21T12:47:33.409Z,102401.53
2018-11-21T12:50:19.521Z,102408.32
2018-11-21T12:53:06.186Z,102405.14
2018-11-21T12:56:02.581Z,102399.50
2018-11-21T12:58:40.937Z,102401.97
2018-11-21T13:01:26.745Z,102398.00
2018-11-21T13:04:14.765Z,102396.23
2018-11-21T13:07:02.244Z,102406.95
2018-11-21T13:09:56.646Z,102402.33
2018-11-21T13:12:52.259Z,102396.84
2018-11-21T13:15:45.907Z,102405.02
2018-11-21T13:18:32.391Z,102397.73
2018-11-21T13:21:17.390Z,102405.14
2018-11-21T13:24:07.569Z,102403.86
2018-11-21T13:26:58.981Z,102405.14
2018-11-21T13:29:45.353Z,102399.89
2018-11-21T13:32:32.504Z,102402.72
2018-11-21T13:35:19.961Z,102408.63
2018-11-21T13:38:02.037Z,102403.38
2018-11-21T13:40:57.726Z,102405.55
2018-11-21T13:44:00.353Z,102408.23
2018-11-21T13:46:44.149Z,102407.45
2018-11-21T13:49:31.629Z,102409.64
2018-11-21T13:52:10.205Z,102412.70
2018-11-21T13:54:48.640Z,102411.68
2018-11-21T13:57:18.732Z,102416.05
2018-11-21T13:59:47.098Z,102413.48
2018-11-21T14:02:15.445Z,102410.14
2018-11-21T14:04:43.814Z,102408.45
2018-11-21T14:07:12.159Z,102403.86
2018-11-21T14:09:40.533Z,102408.06
2018-11-21T14:12:09.218Z,102408.98
2018-11-21T14:14:37.592Z,102406.03
2018-11-21T14:17:06.417Z,102403.96
2018-11-21T14:19:34.778Z,102402.67
2018-11-21T14:22:03.121Z,102403.69
2018-11-21T14:24:31.726Z,102406.74
2018-11-21T14:27:00.238Z,102408.02
2018-11-21T14:29:28.592Z,102408.94
2018-11-21T14:31:56.962Z,102416.49
2018-11-21T14:34:25.349Z,102418.03
2018-11-21T14:36:53.721Z,102418.44
2018-11-21T14:39:22.084Z,102415.38
2018-11-21T14:41:50.502Z,102422.14
2018-11-21T14:44:18.855Z,102421.26
2018-11-21T14:46:49.259Z,102424.09
2018-11-21T14:49:17.619Z,102416.18
2018-11-21T14:51:46.004Z,102420.41
2018-11-21T14:54:14.353Z,102425.93
2018-11-21T14:56:42.737Z,102425.05
2018-11-21T14:59:11.143Z,102427.88
2018-11-21T15:01:39.516Z,102430.43
2018-11-21T15:04:07.871Z,102428.36
2018-11-21T15:06:36.707Z,102427.48
2018-11-21T15:09:11.160Z,102423.77
2018-11-21T15:11:40.594Z,102434.49
2018-11-21T15:14:08.944Z,102439.48
2018-11-21T15:16:37.301Z,102430.82
2018-11-21T15:19:05.862Z,102434.92
2018-11-21T15:21:34.229Z,102431.61
2018-11-21T15:24:02.936Z,102431.61
2018-11-21T15:26:31.975Z,102437.13
2018-11-21T15:29:01.585Z,102437.13
2018-11-21T15:31:29.927Z,102432.80
2018-11-21T15:33:58.308Z,102441.76
2018-11-21T15:36:26.647Z,102443.92
2018-11-21T15:38:55.014Z,102448.16
2018-11-21T15:41:23.365Z,102440.97
2018-11-21T15:43:51.744Z,102447.77
2018-11-21T15:46:20.096Z,102438.80
2018-11-21T15:48:48.549Z,102449.92
2018-11-21T15:51:16.893Z,102452.61
2018-11-21T15:53:45.269Z,102445.82
2018-11-21T15:56:13.632Z,102455.93
2018-11-21T15:58:41.971Z,102455.93
2018-11-21T16:01:10.341Z,102452.09
2018-11-21T16:03:38.683Z,102458.09
2018-11-21T16:06:07.056Z,102457.83
2018-11-21T16:08:35.408Z,102457.44
2018-11-21T16:11:03.811Z,102456.69
2018-11-21T16:13:32.153Z,102455.50
2018-11-21T16:16:00.519Z,102465.38
2018-11-21T16:18:29.073Z,102462.82
2018-11-21T16:20:57.434Z,102462.82
2018-11-21T16:23:25.780Z,102462.69
2018-11-21T16:25:56.380Z,102473.19
2018-11-21T16:28:24.721Z,102468.46
2018-11-21T16:30:53.089Z,102471.55
2018-11-21T16:33:21.440Z,102464.13
2018-11-21T16:35:49.872Z,102467.09
2018-11-21T16:38:18.301Z,102478.20
2018-11-21T16:40:46.648Z,102473.87
2018-11-21T16:43:15.012Z,102478.20
2018-11-21T16:45:45.457Z,102478.73
2018-11-21T16:48:13.828Z,102480.90
2018-11-21T16:50:42.167Z,102481.42
2018-11-21T16:53:10.615Z,102487.66
2018-11-21T16:55:38.977Z,102483.33
2018-11-21T16:58:07.343Z,102483.95
2018-11-21T17:00:35.685Z,102484.84
2018-11-21T17:03:04.233Z,102485.72
2018-11-21T17:05:32.573Z,102482.38
2018-11-21T17:08:00.909Z,102484.58
2018-11-21T17:10:30.825Z,102492.75
2018-11-21T17:12:59.173Z,102499.64
2018-11-21T17:15:29.107Z,102496.33
2018-11-21T17:17:57.446Z,102505.77
2018-11-21T17:20:30.569Z,102506.79
2018-11-21T17:22:59.774Z,102505.38
2018-11-21T17:25:32.987Z,102508.73
2018-11-21T17:28:01.325Z,102507.05
2018-11-21T17:30:29.691Z,102504.89
2018-11-21T17:32:58.026Z,102507.05
2018-11-21T17:35:26.587Z,102507.31
2018-11-21T17:37:56.176Z,102497.08
2018-11-21T17:40:27.339Z,102498.66
2018-11-21T17:42:56.110Z,102498.26
2018-11-21T17:45:24.475Z,102502.49
2018-11-21T17:47:52.851Z,102501.70
2018-11-21T17:50:22.698Z,102505.28
2018-11-21T17:52:52.599Z,102500.42
2018-11-21T17:55:22.943Z,102505.94
2018-11-21T17:57:51.285Z,102506.69
2018-11-21T18:00:21.129Z,102507.61
2018-11-21T18:02:49.477Z,102507.22
2018-11-21T18:05:19.301Z,102508.11
2018-11-21T18:07:48.010Z,102504.27
2018-11-21T18:10:17.926Z,102503.48
2018-11-21T18:12:46.821Z,102510.66
2018-11-21T18:15:15.744Z,102513.62
2018-11-21T18:17:45.332Z,102510.53
2018-11-21T18:20:14.401Z,102505.80
2018-11-21T18:22:43.518Z,102513.88
2018-11-21T18:25:14.326Z,102516.30
2018-11-21T18:27:43.227Z,102517.98
2018-11-21T18:30:13.845Z,102520.14
2018-11-21T18:32:43.174Z,102521.42
2018-11-21T18:35:13.681Z,102522.70
2018-11-21T18:37:42.504Z,102528.22
2018-11-21T18:40:13.886Z,102522.61
2018-11-21T18:42:42.330Z,102533.73
2018-11-21T18:45:14.470Z,102531.56
2018-11-21T18:47:43.590Z,102535.80
2018-11-21T18:50:13.272Z,102540.92
2018-11-21T18:52:44.446Z,102543.34
2018-11-21T18:55:15.254Z,102541.67
2018-11-21T18:58:30.488Z,102542.06
2018-11-21T19:00:58.870Z,102549.48
2018-11-21T19:03:27.233Z,102546.53
2018-11-21T19:05:55.579Z,102540.12
2018-11-21T19:08:23.964Z,102548.83
2018-11-21T19:10:52.746Z,102546.77
2018-11-21T19:13:21.673Z,102553.69
2018-11-21T19:15:50.010Z,102550.20
2018-11-21T19:18:18.527Z,102547.28
2018-11-21T19:20:46.966Z,102553.69
2018-11-21T19:23:15.345Z,102549.55
2018-11-21T19:25:43.704Z,102558.51
2018-11-21T19:28:12.057Z,102557.76
2018-11-21T19:30:40.681Z,102555.95
2018-11-21T19:33:09.028Z,102563.27
2018-11-21T19:35:37.409Z,102564.16
2018-11-21T19:38:05.874Z,102566.33
2018-11-21T19:40:34.236Z,102567.73
2018-11-21T19:43:02.580Z,102571.28
2018-11-21T19:45:30.942Z,102573.84
2018-11-21T19:47:59.288Z,102577.69
2018-11-21T19:50:27.677Z,102572.95
2018-11-21T19:52:56.049Z,102571.05
2018-11-21T19:55:26.161Z,102571.44
2018-11-21T19:57:54.612Z,102571.94
2018-11-21T20:00:27.236Z,102570.81
2018-11-21T20:02:55.593Z,102564.28
2018-11-21T20:05:23.966Z,102569.41
2018-11-21T20:07:52.647Z,102568.42
2018-11-21T20:10:21.674Z,102565.23
2018-11-21T20:12:50.019Z,102574.94
2018-11-21T20:15:20.167Z,102576.61
2018-11-21T20:17:53.803Z,102571.27
2018-11-21T20:20:22.664Z,102567.68
2018-11-21T20:22:53.378Z,102572.80
2018-11-21T20:25:23.410Z,102573.19
2018-11-21T20:27:51.815Z,102566.66
2018-11-21T20:30:24.469Z,102571.78
